createdAt,value
2023-04-04T00:02:46.069Z,92.03
2023-04-04T00:07:53.831Z,92.27
2023-04-04T00:12:59.256Z,92.65
2023-04-04T00:18:04.485Z,92.19
2023-04-04T00:23:12.841Z,92.44
2023-04-04T00:28:17.881Z,92.85
2023-04-04T00:33:22.982Z,92.05
2023-04-04T00:38:32.347Z,92.88
2023-04-04T00:43:38.449Z,93.38
2023-04-04T00:48:44.170Z,92.92
2023-04-04T00:53:54.241Z,93.13
2023-04-04T00:59:01.097Z,95.25
2023-04-04T01:04:07.244Z,94.19
2023-04-04T01:09:15.876Z,94.16
2023-04-04T01:14:21.197Z,94.52
2023-04-04T01:19:35.331Z,95.61
2023-04-04T01:24:50.106Z,96.05
2023-04-04T01:29:59.025Z,95.48
2023-04-04T01:35:21.189Z,96.09
2023-04-04T01:40:32.059Z,96.32
2023-04-04T01:45:39.833Z,96.21
2023-04-04T01:50:48.584Z,95.99
2023-04-04T01:55:54.568Z,96.52
2023-04-04T02:01:04.581Z,95.75
2023-04-04T02:06:10.065Z,96.67
2023-04-04T02:11:15.314Z,97.09
2023-04-04T02:16:23.162Z,96.53
2023-04-04T02:21:29.459Z,96.54
2023-04-04T02:26:34.656Z,97.67
2023-04-04T02:31:42.534Z,97.47
2023-04-04T02:36:47.801Z,98.05
2023-04-04T02:41:52.994Z,98.12
2023-04-04T02:47:00.963Z,98.52
2023-04-04T02:52:09.175Z,99.32
2023-04-04T02:57:18.852Z,100.00
2023-04-04T03:02:27.195Z,100.00
2023-04-04T03:07:32.978Z,100.00
2023-04-04T03:12:37.991Z,100.00
2023-04-04T03:17:48.461Z,100.00
2023-04-04T03:22:53.592Z,100.00
2023-04-04T03:27:59.228Z,100.00
2023-04-04T03:33:10.487Z,100.00
2023-04-04T03:38:16.950Z,100.00
2023-04-04T03:43:22.037Z,100.00
2023-04-04T03:48:30.350Z,100.00
2023-04-04T03:53:35.966Z,100.00
2023-04-04T03:58:41.819Z,100.00
2023-04-04T04:03:53.848Z,100.00
2023-04-04T04:08:59.331Z,100.00
2023-04-04T04:14:04.466Z,100.00
2023-04-04T04:19:12.166Z,100.00
2023-04-04T04:24:19.543Z,100.00
2023-04-04T04:29:24.679Z,100.00
2023-04-04T04:34:33.477Z,100.00
2023-04-04T04:39:38.641Z,100.00
2023-04-04T04:45:03.970Z,100.00
2023-04-04T04:50:15.499Z,100.00
2023-04-04T04:55:23.606Z,100.00
2023-04-04T05:00:40.897Z,100.00
2023-04-04T05:05:48.968Z,99.86
2023-04-04T05:10:55.296Z,99.70
2023-04-04T05:16:05.039Z,99.45
2023-04-04T05:21:14.350Z,95.65
2023-04-04T05:26:22.298Z,96.79
2023-04-04T05:31:29.924Z,95.70
2023-04-04T05:36:39.247Z,93.80
2023-04-04T05:41:45.446Z,87.70
2023-04-04T05:46:54.766Z,71.05
2023-04-04T05:52:05.252Z,64.16
2023-04-04T05:57:12.508Z,61.66
2023-04-04T06:02:25.609Z,61.80
2023-04-04T06:07:40.062Z,63.08
2023-04-04T06:12:49.371Z,62.21
2023-04-04T06:17:56.138Z,56.73
2023-04-04T06:23:05.005Z,56.63
2023-04-04T06:28:16.248Z,57.02
2023-04-04T06:33:23.552Z,56.64
2023-04-04T06:38:31.949Z,56.73
2023-04-04T06:43:40.819Z,56.24
2023-04-04T06:48:45.981Z,56.14
2023-04-04T06:53:53.757Z,56.90
2023-04-04T06:58:58.909Z,54.92
2023-04-04T07:04:04.181Z,58.24
2023-04-04T07:09:21.928Z,56.38
2023-04-04T07:14:33.536Z,55.79
2023-04-04T07:19:38.598Z,53.94
2023-04-04T07:24:46.311Z,54.16
2023-04-04T07:29:51.414Z,52.56
2023-04-04T07:34:56.459Z,49.94
2023-04-04T07:40:08.167Z,50.51
2023-04-04T07:45:14.030Z,48.20
2023-04-04T07:50:20.946Z,51.05
2023-04-04T07:55:29.244Z,48.78
2023-04-04T08:00:39.188Z,48.52
2023-04-04T08:05:47.003Z,46.36
2023-04-04T08:10:58.009Z,50.13
2023-04-04T08:16:03.264Z,48.88
2023-04-04T08:21:09.062Z,51.42
2023-04-04T08:26:16.981Z,48.40
2023-04-04T08:31:22.444Z,51.22
2023-04-04T08:36:28.853Z,47.97
2023-04-04T08:41:38.238Z,47.98
2023-04-04T08:46:48.235Z,51.27
2023-04-04T08:51:56.079Z,48.89
2023-04-04T08:57:06.318Z,48.80
2023-04-04T09:02:20.680Z,48.82
2023-04-04T09:07:27.451Z,50.04
2023-04-04T09:18:18.537Z,49.29
2023-04-04T09:23:25.590Z,51.45
2023-04-04T09:28:33.412Z,48.85
2023-04-04T09:33:39.102Z,49.57
2023-04-04T09:38:48.902Z,48.89
2023-04-04T09:43:56.940Z,51.22
2023-04-04T09:49:04.990Z,51.35
2023-04-04T09:54:26.219Z,49.25
2023-04-04T09:59:37.574Z,51.26
2023-04-04T10:05:03.353Z,50.71
2023-04-04T10:10:13.793Z,48.37
2023-04-04T10:15:24.023Z,47.55
2023-04-04T10:20:32.140Z,46.33
2023-04-04T10:25:37.942Z,47.19
2023-04-04T10:31:05.743Z,46.39
2023-04-04T10:36:16.042Z,47.35
2023-04-04T10:41:23.557Z,47.17
2023-04-04T10:46:36.729Z,46.35
2023-04-04T10:51:54.947Z,48.21
2023-04-04T10:57:04.958Z,48.52
2023-04-04T11:02:13.330Z,48.98
2023-04-04T11:07:22.086Z,48.08
2023-04-04T11:12:34.443Z,48.84
2023-04-04T11:18:10.522Z,50.27
2023-04-04T11:23:24.737Z,48.68
2023-04-04T11:28:48.715Z,47.11
2023-04-04T11:34:06.020Z,46.45
2023-04-04T11:39:12.899Z,46.60
2023-04-04T11:44:19.442Z,47.62
2023-04-04T11:49:32.904Z,48.64
2023-04-04T11:54:40.879Z,48.72
2023-04-04T11:59:52.610Z,49.33
2023-04-04T12:05:01.102Z,50.92
2023-04-04T12:10:06.835Z,48.96
2023-04-04T12:15:26.432Z,48.16
2023-04-04T12:20:41.870Z,48.39
2023-04-04T12:25:50.133Z,48.88
2023-04-04T12:30:56.207Z,49.94
2023-04-04T12:36:06.746Z,49.00
2023-04-04T12:41:19.824Z,48.23
2023-04-04T12:46:30.265Z,46.31
2023-04-04T12:51:39.705Z,45.26
2023-04-04T12:56:47.913Z,48.33
2023-04-04T13:01:57.607Z,49.01
2023-04-04T13:07:11.266Z,47.12
2023-04-04T13:12:17.034Z,48.70
2023-04-04T13:17:24.268Z,48.12
2023-04-04T13:22:40.572Z,47.13
2023-04-04T13:27:48.214Z,47.46
2023-04-04T13:32:56.834Z,48.36
2023-04-04T13:38:04.827Z,48.56
2023-04-04T13:43:11.590Z,48.61
2023-04-04T13:48:17.028Z,48.63
2023-04-04T13:53:27.421Z,49.42
2023-04-04T13:58:49.659Z,48.13
2023-04-04T14:03:58.547Z,47.86
2023-04-04T14:09:10.919Z,48.79
2023-04-04T14:14:16.076Z,48.69
2023-04-04T14:19:21.356Z,48.14
2023-04-04T14:24:29.051Z,47.72
2023-04-04T14:29:34.251Z,49.26
2023-04-04T14:34:41.264Z,49.84
2023-04-04T14:39:49.161Z,49.13
2023-04-04T14:44:54.309Z,48.52
2023-04-04T14:50:00.604Z,48.41
2023-04-04T14:55:13.346Z,49.35
2023-04-04T15:00:25.272Z,49.03
2023-04-04T15:05:33.852Z,49.14
2023-04-04T15:10:52.047Z,49.22
2023-04-04T15:15:59.324Z,49.74
2023-04-04T15:21:10.995Z,48.98
2023-04-04T15:26:18.815Z,49.31
2023-04-04T15:31:26.479Z,49.97
2023-04-04T15:36:36.658Z,48.71
2023-04-04T15:41:45.722Z,47.84
2023-04-04T15:46:50.915Z,47.74
2023-04-04T15:52:01.503Z,48.44
2023-04-04T15:57:13.562Z,49.21
2023-04-04T16:02:22.072Z,49.41
2023-04-04T16:07:27.182Z,49.83
2023-04-04T16:12:36.385Z,50.37
2023-04-04T16:17:44.997Z,50.62
2023-04-04T16:22:50.240Z,50.32
2023-04-04T16:27:59.346Z,50.56
2023-04-04T16:33:04.598Z,50.78
2023-04-04T16:38:15.453Z,51.24
2023-04-04T16:43:24.055Z,51.82
2023-04-04T16:48:29.133Z,52.14
2023-04-04T16:53:34.114Z,53.07
2023-04-04T16:58:43.109Z,52.34
2023-04-04T17:03:51.099Z,52.51
2023-04-04T17:08:58.999Z,53.03
2023-04-04T17:14:06.636Z,53.08
2023-04-04T17:19:11.785Z,53.25
2023-04-04T17:24:17.546Z,54.05
2023-04-04T17:29:27.186Z,54.44
2023-04-04T17:34:32.552Z,55.61
2023-04-04T17:39:42.848Z,56.06
2023-04-04T17:44:52.005Z,56.29
2023-04-04T17:50:01.433Z,56.99
2023-04-04T17:55:06.848Z,57.53
2023-04-04T18:00:16.934Z,57.77
2023-04-04T18:05:23.914Z,57.40
2023-04-04T18:10:29.122Z,57.50
2023-04-04T18:15:41.360Z,58.31
2023-04-04T18:20:48.724Z,58.48
2023-04-04T18:26:00.233Z,58.07
2023-04-04T18:31:08.318Z,58.11
2023-04-04T18:36:14.134Z,58.74
2023-04-04T18:41:20.231Z,59.75
2023-04-04T18:46:36.559Z,60.30
2023-04-04T18:51:42.182Z,61.20
2023-04-04T18:56:47.440Z,61.62
2023-04-04T19:01:56.586Z,61.68
2023-04-04T19:07:05.743Z,61.78
2023-04-04T19:12:11.164Z,61.98
2023-04-04T19:17:18.848Z,61.92
2023-04-04T19:22:24.180Z,62.47
2023-04-04T19:27:30.396Z,62.29
2023-04-04T19:32:39.434Z,62.70
2023-04-04T19:37:46.204Z,63.12
2023-04-04T19:42:51.589Z,64.06
2023-04-04T19:47:59.606Z,64.64
2023-04-04T19:53:06.137Z,65.87
2023-04-04T19:58:21.298Z,65.87
2023-04-04T20:03:34.464Z,65.29
2023-04-04T20:08:47.408Z,65.81
2023-04-04T20:13:52.889Z,67.96
2023-04-04T20:19:01.932Z,68.88
2023-04-04T20:24:09.960Z,66.65
2023-04-04T20:29:18.527Z,68.45
2023-04-04T20:34:42.007Z,72.49
2023-04-04T20:39:50.710Z,71.23
2023-04-04T20:44:57.595Z,71.99
2023-04-04T20:50:23.990Z,72.49
2023-04-04T20:55:32.051Z,74.77
2023-04-04T21:00:45.033Z,72.78
2023-04-04T21:05:53.345Z,69.94
2023-04-04T21:11:00.110Z,76.79
2023-04-04T21:16:06.862Z,75.13
2023-04-04T21:21:22.706Z,74.71
2023-04-04T21:26:36.050Z,72.72
2023-04-04T21:31:47.012Z,72.06
2023-04-04T21:36:56.482Z,79.00
2023-04-04T21:42:06.969Z,74.00
2023-04-04T21:47:16.256Z,73.11
2023-04-04T21:52:23.881Z,75.82
2023-04-04T21:57:30.089Z,79.83
2023-04-04T22:02:35.150Z,78.35
2023-04-04T22:07:42.846Z,76.64
2023-04-04T22:12:50.067Z,79.27
2023-04-04T22:17:56.277Z,79.94
2023-04-04T22:23:07.691Z,81.00
2023-04-04T22:28:12.973Z,83.09
2023-04-04T22:33:18.065Z,82.46
2023-04-04T22:38:25.847Z,83.93
2023-04-04T22:43:31.544Z,83.97
2023-04-04T22:48:41.539Z,79.54
2023-04-04T22:53:50.653Z,81.12
2023-04-04T22:58:56.176Z,83.04
2023-04-04T23:04:01.401Z,79.19
2023-04-04T23:09:10.593Z,84.29
2023-04-04T23:14:19.828Z,82.21
2023-04-04T23:19:25.349Z,81.49
2023-04-04T23:24:33.092Z,81.08
2023-04-04T23:29:40.278Z,82.64
2023-04-04T23:34:45.327Z,82.16
2023-04-04T23:39:53.186Z,77.66
2023-04-04T23:45:01.552Z,79.77
2023-04-04T23:50:07.801Z,83.39
2023-04-04T23:55:17.261Z,84.14
